Agua Boa, Brazil
Current Conditions -  °F | °C
As of 5:00 PM on Friday 19 Dec 2014 (Local Time) from SBBW Reporting Station
Thunderstorm Thunderstorm  
Wind Chill: 75°   Ceiling: 2000
Heat Index: 75°   Visibility: 6mi
Dew Point: 73°   Wind: 7mph
Humidity: 94%   Direction: 300°WNW
Pressure: 29.77"   Gusts: NA
Location:  14.05°S, 52.16°W
Report Text: SBBW 192000Z 30006KT 9999 TS VCSH BKN020 FEW025CB SCT090 24/23 Q1008
Loading
Personal Weather Stations






























Interactive Weather Map New forecast layout! Learn more

10-Day Weather Forecast

Advertisements
Track Severe Weather on mobile